Time;durP1;ratioP1;P1;durP2;ratioP2;P2;SDS_P1;SDS_P2;PMS_P1;PMS_P2;Temp;Humidity;BMP_temperature;BMP_pressure;BME280_temperature;BME280_humidity;BME280_pressure;Samples;Min_cycle;Max_cycle;Signal;HPM_P1;HPM_P2
2022/07/17 00:01:48;;;;;;;10.32;4.08;;;;;;;11.72;81.04;101600.95;1690129;83;21071;-92
2022/07/17 00:04:15;;;;;;;7.85;3.45;;;;;;;11.73;81.07;101604.08;1699239;83;21025;-92
2022/07/17 00:06:43;;;;;;;10.55;3.22;;;;;;;11.76;81.18;101609.44;1684097;83;21395;-93
2022/07/17 00:09:10;;;;;;;14.53;4.50;;;;;;;11.78;81.13;101605.54;1669510;83;22344;-92
2022/07/17 00:11:37;;;;;;;6.45;3.33;;;;;;;11.79;81.18;101612.19;1694189;82;21053;-91
2022/07/17 00:14:05;;;;;;;6.70;3.10;;;;;;;11.81;81.13;101608.30;1670144;83;21098;-94
2022/07/17 00:16:32;;;;;;;5.03;3.05;;;;;;;11.81;81.15;101604.34;1664405;83;21077;-92
2022/07/17 00:18:59;;;;;;;5.10;2.98;;;;;;;11.83;81.18;101602.64;1670537;83;21643;-93
2022/07/17 00:21:25;;;;;;;7.97;2.80;;;;;;;11.84;81.22;101608.38;1663980;83;21101;-93
2022/07/17 00:23:52;;;;;;;6.37;3.20;;;;;;;11.84;81.21;101607.98;1664235;83;21116;-93
2022/07/17 00:26:19;;;;;;;6.62;3.80;;;;;;;11.86;81.27;101606.28;1663933;83;21167;-93
2022/07/17 00:28:46;;;;;;;5.53;3.22;;;;;;;11.89;81.28;101607.23;1664151;85;21098;-93
2022/07/17 00:31:15;;;;;;;9.83;3.50;;;;;;;11.90;81.29;101605.08;1670179;84;21736;-93
2022/07/17 00:33:43;;;;;;;7.42;2.87;;;;;;;11.93;81.30;101609.16;1640966;84;21125;-94
2022/07/17 00:36:09;;;;;;;9.38;4.62;;;;;;;11.94;81.28;101610.53;1678583;83;21081;-93
2022/07/17 00:38:36;;;;;;;7.10;2.62;;;;;;;11.97;81.33;101608.41;1664197;83;21145;-93
2022/07/17 00:41:05;;;;;;;7.92;3.37;;;;;;;12.00;81.33;101605.88;1663472;83;21487;-93
2022/07/17 00:43:31;;;;;;;9.73;2.98;;;;;;;12.03;81.36;101616.51;1670535;83;21762;-91
2022/07/17 00:46:05;;;;;;;5.95;2.50;;;;;;;12.04;81.38;101607.33;1646542;83;21129;-93
2022/07/17 00:48:30;;;;;;;5.33;2.75;;;;;;;12.08;81.42;101612.29;1672918;82;21480;-94
2022/07/17 00:50:57;;;;;;;9.93;3.02;;;;;;;12.12;81.41;101608.01;1670497;83;21619;-93
2022/07/17 00:53:24;;;;;;;5.58;3.02;;;;;;;12.15;81.39;101609.44;1664254;85;21097;-91
2022/07/17 00:55:51;;;;;;;6.10;3.50;;;;;;;12.18;81.36;101607.80;1664263;83;21835;-92
2022/07/17 00:58:21;;;;;;;8.33;3.15;;;;;;;12.22;81.32;101607.47;1666194;83;21165;-93
2022/07/17 01:00:52;;;;;;;4.25;2.62;;;;;;;12.25;81.30;101611.08;1667970;83;21152;-93
2022/07/17 01:03:20;;;;;;;4.85;3.00;;;;;;;12.29;81.32;101610.75;1670129;83;21588;-94
2022/07/17 01:05:47;;;;;;;4.45;3.00;;;;;;;12.33;81.27;101610.43;1658213;83;21082;-92
2022/07/17 01:08:13;;;;;;;6.42;3.50;;;;;;;12.35;81.31;101614.02;1667585;85;21719;-93
2022/07/17 01:10:40;;;;;;;5.10;2.62;;;;;;;12.39;81.33;101613.29;1645007;83;21101;-93
2022/07/17 01:13:07;;;;;;;7.17;3.60;;;;;;;12.42;81.28;101608.97;1663996;83;21125;-92
2022/07/17 01:15:38;;;;;;;5.55;3.00;;;;;;;12.44;81.26;101607.30;1669904;83;21136;-92
2022/07/17 01:18:09;;;;;;;7.28;3.27;;;;;;;12.47;81.26;101609.13;1664143;83;21066;-93
2022/07/17 01:20:36;;;;;;;10.53;3.58;;;;;;;12.50;81.21;101607.91;1689516;83;22424;-92
2022/07/17 01:23:03;;;;;;;11.10;3.00;;;;;;;12.53;81.22;101616.34;1707889;83;21070;-93
2022/07/17 01:25:30;;;;;;;7.40;3.87;;;;;;;12.56;81.25;101608.09;1708023;83;21050;-93
2022/07/17 01:27:57;;;;;;;8.18;2.77;;;;;;;12.60;81.24;101614.37;1708285;83;21066;-92
2022/07/17 01:30:24;;;;;;;7.10;3.30;;;;;;;12.64;81.25;101617.57;1708173;83;21113;-94
2022/07/17 01:32:51;;;;;;;7.42;2.65;;;;;;;12.68;81.27;101609.31;1708256;83;21744;-93
2022/07/17 01:35:18;;;;;;;4.50;2.08;;;;;;;12.73;81.27;101614.32;1707725;83;21158;-93
2022/07/17 01:37:47;;;;;;;7.28;2.75;;;;;;;12.78;81.26;101614.01;1703796;83;20966;-93
2022/07/17 01:40:15;;;;;;;6.97;2.30;;;;;;;12.84;81.25;101619.50;1697985;82;21363;-92
2022/07/17 01:42:48;;;;;;;8.70;2.33;;;;;;;12.91;81.20;101614.84;1663941;83;21124;-92
2022/07/17 01:45:16;;;;;;;5.33;2.40;;;;;;;12.97;81.10;101610.16;1696794;83;23174;-91
2022/07/17 01:47:43;;;;;;;4.85;2.60;;;;;;;13.03;80.98;101610.36;1686959;83;21065;-90
2022/07/17 01:50:11;;;;;;;2.20;1.57;;;;;;;13.07;80.89;101607.38;1664008;83;21650;-90
2022/07/17 01:52:38;;;;;;;3.83;2.10;;;;;;;13.10;80.76;101599.52;1654437;84;21115;-91
2022/07/17 01:55:07;;;;;;;4.85;2.00;;;;;;;13.12;80.66;101592.12;1654939;83;21086;-90
2022/07/17 01:57:34;;;;;;;2.98;1.72;;;;;;;13.15;80.52;101597.91;1678853;83;21758;-91
2022/07/17 02:00:01;;;;;;;4.33;1.52;;;;;;;13.16;80.46;101592.67;1663888;83;21071;-91
2022/07/17 02:02:28;;;;;;;7.60;1.65;;;;;;;13.18;80.29;101598.00;1664135;84;21068;-92
2022/07/17 02:04:55;;;;;;;4.20;1.57;;;;;;;13.18;80.17;101592.28;1666307;84;21131;-90
2022/07/17 02:07:22;;;;;;;10.55;3.52;;;;;;;13.18;80.02;101595.36;1666754;84;21068;-91
2022/07/17 02:09:49;;;;;;;6.55;1.57;;;;;;;13.16;79.96;101588.70;1666701;84;21757;-92
2022/07/17 02:12:16;;;;;;;6.12;1.85;;;;;;;13.15;79.79;101592.62;1661275;84;21103;-90
2022/07/17 02:14:43;;;;;;;6.35;1.70;;;;;;;13.11;79.74;101590.31;1663317;85;21104;-91
2022/07/17 02:17:09;;;;;;;3.92;1.60;;;;;;;13.07;79.66;101595.05;1666358;84;21112;-90
2022/07/17 02:19:37;;;;;;;7.85;1.60;;;;;;;13.04;79.61;101606.84;1664011;84;21115;-91
2022/07/17 02:22:06;;;;;;;4.15;1.72;;;;;;;13.01;79.60;101600.17;1664431;84;21790;-91
2022/07/17 02:24:33;;;;;;;5.35;1.47;;;;;;;12.96;79.56;101600.02;1688628;83;20912;-91
2022/07/17 02:27:00;;;;;;;2.98;1.60;;;;;;;12.92;79.54;101594.19;1664208;85;21065;-91
2022/07/17 02:29:27;;;;;;;3.55;2.12;;;;;;;12.89;79.54;101597.16;1666431;84;21155;-91
2022/07/17 02:31:54;;;;;;;5.50;1.32;;;;;;;12.85;79.53;101600.13;1666399;84;21490;-90
2022/07/17 02:34:20;;;;;;;3.22;1.50;;;;;;;12.82;79.52;101605.34;1669758;84;21766;-91
2022/07/17 02:36:47;;;;;;;1.85;1.25;;;;;;;12.80;79.56;101607.02;1666638;84;21076;-92
2022/07/17 02:39:14;;;;;;;5.05;1.57;;;;;;;12.76;79.55;101607.39;1666391;84;21095;-91
2022/07/17 02:41:40;;;;;;;3.50;1.60;;;;;;;12.74;79.55;101617.41;1666423;84;21627;-91
2022/07/17 02:44:07;;;;;;;5.37;1.45;;;;;;;12.71;79.60;101611.62;1667346;84;21067;-90
2022/07/17 02:46:35;;;;;;;3.02;1.40;;;;;;;12.69;79.64;101613.33;1668589;84;21776;-91
2022/07/17 02:49:04;;;;;;;3.45;1.62;;;;;;;12.66;79.62;101619.83;1668218;84;21221;-91
2022/07/17 02:51:31;;;;;;;4.05;1.60;;;;;;;12.66;79.67;101620.27;1667147;84;21069;-91
2022/07/17 02:53:57;;;;;;;4.65;1.40;;;;;;;12.65;79.71;101624.66;1667540;86;21186;-92
2022/07/17 02:56:24;;;;;;;4.45;1.85;;;;;;;12.64;79.74;101626.37;1667382;84;21092;-90
2022/07/17 02:58:51;;;;;;;6.35;1.98;;;;;;;12.64;79.74;101622.42;1664424;84;21630;-92
2022/07/17 03:01:18;;;;;;;6.83;1.47;;;;;;;12.66;79.77;101628.19;1664211;83;21156;-91
2022/07/17 03:03:47;;;;;;;6.78;1.72;;;;;;;12.67;79.77;101631.28;1668554;84;22109;-92
2022/07/17 03:06:13;;;;;;;4.90;1.85;;;;;;;12.68;79.78;101637.05;1675962;83;21090;-91
2022/07/17 03:08:40;;;;;;;4.97;1.55;;;;;;;12.69;79.80;101639.75;1666079;83;21070;-91
2022/07/17 03:11:07;;;;;;;6.45;1.40;;;;;;;12.71;79.81;101641.12;1664131;85;21725;-92
2022/07/17 03:13:33;;;;;;;5.17;1.42;;;;;;;12.74;79.82;101642.52;1670001;85;21100;-92
2022/07/17 03:16:00;;;;;;;4.47;1.25;;;;;;;12.76;79.86;101644.77;1683172;83;22234;-93
2022/07/17 03:18:27;;;;;;;6.03;1.57;;;;;;;12.79;79.92;101647.08;1686616;84;21086;-91
2022/07/17 03:20:54;;;;;;;2.42;1.37;;;;;;;12.84;79.92;101645.92;1677670;84;21134;-92
2022/07/17 03:23:21;;;;;;;5.95;1.77;;;;;;;12.89;79.93;101649.57;1709257;83;22427;-92
2022/07/17 03:25:47;;;;;;;4.58;1.72;;;;;;;12.96;79.97;101657.27;1679793;85;21636;-92
2022/07/17 03:28:14;;;;;;;4.42;1.60;;;;;;;13.02;79.95;101651.72;1688168;83;21689;-91
2022/07/17 03:30:41;;;;;;;4.15;1.80;;;;;;;13.11;79.95;101655.08;1670158;85;21128;-92
2022/07/17 03:33:07;;;;;;;6.17;1.62;;;;;;;13.21;79.96;101654.50;1687644;83;21203;-91
2022/07/17 03:35:34;;;;;;;4.78;2.25;;;;;;;13.36;79.94;101661.09;1680141;83;21740;-92
2022/07/17 03:38:01;;;;;;;2.90;1.47;;;;;;;13.54;79.74;101654.11;1679010;84;21059;-92
2022/07/17 03:40:28;;;;;;;4.10;1.62;;;;;;;13.99;80.39;101661.47;1687417;84;21647;-91
2022/07/17 03:42:54;;;;;;;3.02;1.30;;;;;;;15.01;81.08;101654.59;1680586;85;22212;-91
2022/07/17 03:45:21;;;;;;;4.05;1.77;;;;;;;16.49;81.80;101651.11;1680555;84;21091;-91
2022/07/17 03:47:48;;;;;;;3.80;1.37;;;;;;;18.34;80.89;101655.02;1680604;84;21749;-92
2022/07/17 03:50:15;;;;;;;5.72;1.50;;;;;;;20.07;79.17;101660.66;1677940;85;21086;-92
2022/07/17 03:52:41;;;;;;;7.28;1.70;;;;;;;21.52;75.94;101666.11;1677731;84;21135;-92
2022/07/17 03:55:09;;;;;;;3.55;1.12;;;;;;;22.75;73.79;101666.02;1675964;84;21528;-93
2022/07/17 03:57:36;;;;;;;4.12;1.45;;;;;;;23.87;71.33;101667.28;1680289;84;21613;-93
2022/07/17 04:00:04;;;;;;;3.22;1.32;;;;;;;25.70;67.20;101651.66;1680484;85;22324;-91
2022/07/17 04:02:31;;;;;;;3.58;1.55;;;;;;;25.70;67.20;101651.66;1680933;84;21113;-93
2022/07/17 04:04:57;;;;;;;3.60;1.70;;;;;;;26.67;64.84;101673.54;1680845;83;21096;-93
2022/07/17 04:07:27;;;;;;;2.42;1.02;;;;;;;27.22;62.62;101676.46;1675105;83;21090;-93
2022/07/17 04:09:56;;;;;;;3.00;1.32;;;;;;;27.96;60.97;101686.38;1645241;85;21070;-93
2022/07/17 04:12:23;;;;;;;2.85;1.22;;;;;;;28.57;58.55;101683.89;1670157;83;21986;-93
2022/07/17 04:14:50;;;;;;;4.62;1.25;;;;;;;29.03;57.56;101684.93;1677923;83;21459;-93
2022/07/17 04:17:19;;;;;;;3.50;1.10;;;;;;;29.64;55.98;101684.42;1670152;83;21050;-93
2022/07/17 04:19:45;;;;;;;3.35;0.98;;;;;;;30.18;54.34;101687.65;1672575;83;21132;-93
2022/07/17 04:22:12;;;;;;;2.80;1.10;;;;;;;30.77;53.32;101692.34;1636000;83;21101;-92
2022/07/17 04:24:38;;;;;;;2.30;1.12;;;;;;;31.49;51.34;101692.73;1666534;83;21986;-93
2022/07/17 04:27:05;;;;;;;3.58;0.90;;;;;;;31.82;50.19;101694.78;1666512;83;21113;-94
2022/07/17 04:29:32;;;;;;;4.47;1.10;;;;;;;32.13;48.54;101693.65;1659340;84;21065;-94
2022/07/17 04:31:58;;;;;;;3.08;1.10;;;;;;;32.48;48.08;101695.05;1665878;83;21075;-93
2022/07/17 04:34:25;;;;;;;2.50;0.82;;;;;;;33.17;46.89;101696.44;1698423;83;20958;-94
2022/07/17 04:36:52;;;;;;;3.00;1.02;;;;;;;33.43;45.53;101697.25;1660840;83;21761;-93
2022/07/17 04:39:19;;;;;;;2.77;1.40;;;;;;;33.76;44.98;101691.34;1661120;83;21161;-93
2022/07/17 04:41:45;;;;;;;2.50;1.00;;;;;;;34.31;43.97;101703.62;1664947;83;21540;-93
2022/07/17 04:44:12;;;;;;;3.25;1.00;;;;;;;34.63;42.70;101701.19;1663587;84;21083;-93
2022/07/17 04:46:39;;;;;;;1.77;0.98;;;;;;;34.94;41.67;101705.27;1661351;83;21138;-94
2022/07/17 04:49:06;;;;;;;4.75;1.22;;;;;;;35.20;40.69;101704.51;1661450;84;21734;-94
2022/07/17 04:51:33;;;;;;;1.52;1.30;;;;;;;35.48;40.14;101701.36;1661070;83;21136;-92
2022/07/17 04:54:00;;;;;;;2.87;1.20;;;;;;;35.76;39.61;101712.78;1666916;85;21517;-94
2022/07/17 04:56:27;;;;;;;3.95;1.10;;;;;;;35.89;38.35;101704.63;1672470;85;21131;-94
2022/07/17 04:58:53;;;;;;;2.90;1.00;;;;;;;35.87;37.64;101709.33;1679718;83;21564;-94
2022/07/17 05:01:20;;;;;;;2.58;1.10;;;;;;;36.24;37.56;101708.72;1648629;84;21766;-93
2022/07/17 05:03:47;;;;;;;2.62;1.15;;;;;;;36.65;36.84;101718.67;1680818;83;21057;-94
2022/07/17 05:06:14;;;;;;;2.10;1.02;;;;;;;36.97;36.00;101715.91;1684391;82;21085;-93
2022/07/17 05:08:40;;;;;;;3.60;1.10;;;;;;;37.15;35.76;101726.11;1684606;83;21130;-94
2022/07/17 05:11:08;;;;;;;3.55;1.20;;;;;;;37.29;34.53;101720.97;1664497;85;21045;-93
2022/07/17 05:13:35;;;;;;;3.02;1.45;;;;;;;37.11;34.53;101731.87;1694821;83;21728;-94
2022/07/17 05:16:01;;;;;;;3.20;1.22;;;;;;;37.41;33.90;101731.58;1665041;85;21104;-93
2022/07/17 05:18:28;;;;;;;3.95;1.20;;;;;;;37.49;33.84;101739.24;1685080;84;21467;-94
2022/07/17 05:20:55;;;;;;;3.40;1.10;;;;;;;37.47;33.13;101741.23;1688578;83;21069;-94
2022/07/17 05:23:21;;;;;;;2.33;0.95;;;;;;;37.52;32.85;101740.38;1680485;83;22109;-95
2022/07/17 05:25:48;;;;;;;3.40;0.95;;;;;;;37.68;32.65;101756.14;1668065;85;21746;-95
2022/07/17 05:28:15;;;;;;;2.05;1.00;;;;;;;38.03;32.49;101758.59;1676289;83;21452;-95
2022/07/17 05:30:42;;;;;;;5.03;1.20;;;;;;;38.18;32.04;101754.74;1692317;83;21137;-94
2022/07/17 05:33:09;;;;;;;3.50;1.00;;;;;;;38.26;31.48;101754.16;1692907;84;21118;-94
2022/07/17 05:35:35;;;;;;;2.77;1.10;;;;;;;38.33;31.04;101758.66;1692717;83;21103;-94
2022/07/17 05:38:02;;;;;;;2.05;1.02;;;;;;;38.44;31.02;101755.48;1693325;83;21852;-94
2022/07/17 05:40:29;;;;;;;3.05;1.05;;;;;;;38.42;30.66;101760.20;1692883;83;21067;-91
2022/07/17 05:42:55;;;;;;;4.40;1.02;;;;;;;38.56;30.32;101763.81;1692384;83;21129;-91
2022/07/17 05:45:22;;;;;;;3.58;0.90;;;;;;;38.21;30.08;101754.48;1692467;83;22072;-91
2022/07/17 05:47:49;;;;;;;2.77;1.00;;;;;;;36.45;29.30;101760.69;1692449;83;21102;-90
2022/07/17 05:50:15;;;;;;;3.77;0.90;;;;;;;34.05;30.11;101765.65;1692479;83;21722;-90
2022/07/17 05:52:42;;;;;;;2.77;1.32;;;;;;;31.84;31.13;101774.54;1692047;83;21039;-91
2022/07/17 05:55:09;;;;;;;2.72;1.30;;;;;;;29.65;32.48;101777.94;1692333;83;21080;-90
2022/07/17 05:57:36;;;;;;;3.67;1.20;;;;;;;27.98;34.13;101783.28;1692551;83;21311;-90
2022/07/17 06:00:03;;;;;;;3.12;1.07;;;;;;;26.80;35.54;101790.67;1693110;83;21082;-92
2022/07/17 06:02:32;;;;;;;2.33;0.90;;;;;;;25.68;36.60;101791.48;1679530;83;21663;-92
2022/07/17 06:04:59;;;;;;;2.20;1.02;;;;;;;24.58;37.96;101801.58;1677965;83;21109;-93
2022/07/17 06:07:25;;;;;;;2.12;1.05;;;;;;;23.68;39.39;101795.20;1658307;83;21032;-94
2022/07/17 06:09:52;;;;;;;2.92;1.10;;;;;;;23.00;40.67;101803.13;1663998;83;21155;-93
2022/07/17 06:12:19;;;;;;;1.10;0.70;;;;;;;22.49;41.70;101808.94;1670392;83;21096;-92
2022/07/17 06:14:45;;;;;;;2.90;1.20;;;;;;;22.12;42.75;101802.90;1672993;83;21719;-92
2022/07/17 06:17:13;;;;;;;2.62;1.00;;;;;;;21.88;43.56;101802.58;1676390;83;21063;-94
2022/07/17 06:19:40;;;;;;;2.52;1.00;;;;;;;21.74;44.39;101810.70;1680892;85;21703;-94
2022/07/17 06:22:07;;;;;;;2.15;0.90;;;;;;;21.64;44.97;101816.98;1684577;83;21128;-93
2022/07/17 06:24:34;;;;;;;3.40;1.00;;;;;;;21.50;45.35;101818.38;1680132;83;21125;-92
2022/07/17 06:27:01;;;;;;;5.17;1.82;;;;;;;21.34;45.98;101814.38;1677186;83;21761;-93
2022/07/17 06:29:30;;;;;;;3.77;1.27;;;;;;;21.19;46.43;101818.44;1679378;85;21007;-92
2022/07/17 06:31:56;;;;;;;3.40;1.25;;;;;;;21.02;46.82;101817.55;1679253;85;21041;-92
2022/07/17 06:34:24;;;;;;;2.22;1.32;;;;;;;20.88;47.24;101818.45;1680293;84;21727;-93
2022/07/17 06:37:06;;;;;;;3.05;1.20;;;;;;;20.74;47.71;101823.83;1679067;84;21357;-92
2022/07/17 06:39:35;;;;;;;3.33;1.55;;;;;;;20.47;48.20;101823.77;1679520;84;21750;-94
2022/07/17 06:42:02;;;;;;;4.60;1.45;;;;;;;20.47;48.20;101823.77;1680070;84;21091;-93
2022/07/17 06:44:28;;;;;;;3.70;1.50;;;;;;;20.23;48.58;101829.97;1680241;85;21144;-92
2022/07/17 06:46:55;;;;;;;3.40;1.32;;;;;;;19.99;49.10;101827.23;1680151;85;21540;-93
2022/07/17 06:49:22;;;;;;;4.78;1.57;;;;;;;19.87;49.75;101842.33;1694830;83;21142;-93
2022/07/17 06:51:48;;;;;;;3.65;1.37;;;;;;;19.70;49.87;101843.11;1678391;83;21769;-92
2022/07/17 06:54:18;;;;;;;3.20;1.42;;;;;;;19.61;50.35;101843.06;1678978;84;21071;-91
2022/07/17 06:56:45;;;;;;;1.75;0.90;;;;;;;19.52;50.67;101839.00;1679960;84;21478;-92
2022/07/17 06:59:11;;;;;;;2.40;1.25;;;;;;;19.37;50.84;101839.39;1679293;83;21079;-93
2022/07/17 07:01:38;;;;;;;2.70;1.72;;;;;;;19.29;51.45;101844.22;1680038;83;21320;-93
2022/07/17 07:04:05;;;;;;;4.17;1.25;;;;;;;19.26;51.57;101844.19;1680161;84;21804;-93
2022/07/17 07:06:32;;;;;;;2.37;1.20;;;;;;;19.27;51.76;101845.98;1678971;84;21116;-91
2022/07/17 07:09:01;;;;;;;3.67;1.35;;;;;;;19.27;51.85;101843.31;1676024;83;21099;-91
2022/07/17 07:11:30;;;;;;;3.12;1.35;;;;;;;19.25;52.16;101855.77;1677293;84;21061;-93
2022/07/17 07:13:56;;;;;;;4.65;1.75;;;;;;;19.22;52.40;101856.20;1679005;85;21534;-92
2022/07/17 07:16:25;;;;;;;3.42;1.32;;;;;;;19.22;52.32;101863.32;1674833;84;21722;-91
2022/07/17 07:18:54;;;;;;;2.25;1.25;;;;;;;19.14;52.18;101857.89;1689681;83;21123;-92
2022/07/17 07:21:22;;;;;;;4.50;1.80;;;;;;;19.16;52.18;101864.59;1684488;83;21041;-92
2022/07/17 07:23:50;;;;;;;3.72;1.37;;;;;;;19.10;52.29;101857.88;1654616;85;21141;-92
2022/07/17 07:26:22;;;;;;;3.92;1.65;;;;;;;19.12;52.61;101864.11;1662717;85;21125;-92
2022/07/17 07:28:47;;;;;;;4.55;1.50;;;;;;;19.17;52.51;101874.39;1679315;83;21910;-92
2022/07/17 07:31:21;;;;;;;2.58;0.93;;;;;;;19.19;52.47;101868.63;1680450;83;21107;-92
2022/07/17 07:33:48;;;;;;;4.65;1.50;;;;;;;19.23;52.63;101881.98;1680721;83;21018;-91
2022/07/17 07:36:14;;;;;;;3.95;1.10;;;;;;;19.20;52.37;101884.66;1687412;82;21077;-91
2022/07/17 07:38:41;;;;;;;3.37;1.20;;;;;;;19.17;52.38;101875.28;1681023;83;21051;-91
2022/07/17 07:41:08;;;;;;;3.50;1.50;;;;;;;19.12;52.63;101872.12;1682157;83;21755;-92
2022/07/17 07:43:35;;;;;;;2.17;0.93;;;;;;;19.13;52.95;101872.59;1681401;83;21118;-93
2022/07/17 07:46:03;;;;;;;2.47;1.50;;;;;;;19.21;52.57;101877.08;1683593;83;22159;-92
2022/07/17 07:48:30;;;;;;;5.60;1.25;;;;;;;19.22;52.57;101869.99;1682861;83;21170;-91
2022/07/17 07:50:57;;;;;;;2.33;1.10;;;;;;;19.23;52.36;101876.65;1682520;83;21622;-91
2022/07/17 07:53:23;;;;;;;3.72;1.20;;;;;;;19.21;52.36;101873.08;1681713;83;21748;-91
2022/07/17 07:55:50;;;;;;;3.72;1.07;;;;;;;19.21;51.99;101876.20;1680804;83;21493;-92
2022/07/17 07:58:19;;;;;;;5.78;1.30;;;;;;;19.21;52.06;101871.74;1680447;83;32930;-92
2022/07/17 08:00:46;;;;;;;8.38;1.22;;;;;;;19.25;52.19;101878.45;1681006;83;21548;-92
2022/07/17 08:03:13;;;;;;;5.92;1.10;;;;;;;19.26;51.96;101874.88;1693346;83;21292;-92
2022/07/17 08:05:40;;;;;;;4.90;1.70;;;;;;;19.28;52.29;101886.49;1691031;83;21794;-90
2022/07/17 08:08:07;;;;;;;2.45;1.32;;;;;;;19.32;52.60;101883.84;1694870;83;21581;-91
2022/07/17 08:10:35;;;;;;;4.53;1.72;;;;;;;19.34;52.34;101887.86;1697733;83;21477;-92
2022/07/17 08:13:01;;;;;;;5.47;1.50;;;;;;;19.30;52.15;101890.06;1697146;83;21078;-92
2022/07/17 08:15:29;;;;;;;4.00;1.90;;;;;;;19.30;52.22;101891.40;1669828;84;21092;-92
2022/07/17 08:17:55;;;;;;;5.12;1.85;;;;;;;19.38;52.06;101890.55;1672378;85;22580;-92
2022/07/17 08:20:22;;;;;;;4.70;1.98;;;;;;;19.46;51.96;101885.25;1672450;84;21064;-93
2022/07/17 08:22:49;;;;;;;4.90;1.90;;;;;;;19.56;52.02;101890.23;1672162;84;21076;-92
2022/07/17 08:25:15;;;;;;;2.72;1.50;;;;;;;19.65;51.69;101894.72;1672289;84;21573;-92
2022/07/17 08:27:43;;;;;;;4.00;1.80;;;;;;;19.69;51.88;101898.77;1672087;84;21130;-92
2022/07/17 08:30:15;;;;;;;3.42;1.00;;;;;;;19.80;51.70;101894.83;1670708;85;21797;-92
2022/07/17 08:32:40;;;;;;;2.40;1.55;;;;;;;19.91;51.81;101896.23;1671977;84;21633;-90
2022/07/17 08:35:10;;;;;;;4.05;1.50;;;;;;;20.06;51.14;101898.96;1669741;85;21479;-92
2022/07/17 08:37:48;;;;;;;3.62;1.32;;;;;;;20.19;50.75;101901.24;1671417;85;21124;-92
2022/07/17 08:40:25;;;;;;;4.65;1.30;;;;;;;20.29;50.73;101894.14;1671667;85;21099;-91
2022/07/17 08:42:52;;;;;;;2.75;1.20;;;;;;;20.46;50.85;101898.19;1674241;85;21757;-91
2022/07/17 08:45:19;;;;;;;5.75;2.25;;;;;;;20.61;50.30;101896.95;1674024;84;20917;-92
2022/07/17 08:47:46;;;;;;;2.75;1.30;;;;;;;20.69;49.82;101903.19;1673434;85;21192;-91
2022/07/17 08:50:13;;;;;;;3.20;1.45;;;;;;;20.79;49.13;101906.77;1671167;84;21492;-91
2022/07/17 08:52:42;;;;;;;3.12;1.80;;;;;;;20.83;48.94;101905.88;1671778;84;21566;-91
2022/07/17 08:55:14;;;;;;;3.10;1.35;;;;;;;21.06;48.99;101909.92;1672211;85;22541;-90
2022/07/17 08:57:43;;;;;;;2.12;1.22;;;;;;;21.22;48.47;101896.52;1671295;84;21072;-91
2022/07/17 09:00:15;;;;;;;2.87;1.35;;;;;;;21.28;48.22;101903.20;1667649;84;21076;-91
2022/07/17 09:03:02;;;;;;;3.10;1.35;;;;;;;21.37;47.92;101900.52;1668872;83;21067;-91
2022/07/17 09:05:39;;;;;;;3.45;1.50;;;;;;;21.34;47.96;101900.08;1667780;84;21547;-92
2022/07/17 09:08:09;;;;;;;2.20;1.20;;;;;;;21.76;48.19;101900.48;1668018;85;21877;-92
2022/07/17 09:10:42;;;;;;;3.62;1.30;;;;;;;21.89;47.45;101890.16;1667355;84;22464;-93
2022/07/17 09:13:16;;;;;;;;;;;;;;;21.89;47.45;101890.16;1671350;84;21096;-92
2022/07/17 09:15:43;;;;;;;2.47;1.10;;;;;;;22.05;47.46;101885.60;1674783;84;20381;-92
2022/07/17 09:18:10;;;;;;;2.75;1.12;;;;;;;22.25;47.48;101892.22;1671499;84;21100;-92
2022/07/17 09:20:47;;;;;;;7.55;1.92;;;;;;;22.30;46.80;101899.38;1672927;84;21755;-92
2022/07/17 09:23:14;;;;;;;8.28;2.15;;;;;;;22.24;47.12;101888.66;1672693;84;21230;-89
2022/07/17 09:26:11;;;;;;;3.30;1.85;;;;;;;22.29;47.39;101899.38;1691538;83;21070;-94
2022/07/17 09:28:50;;;;;;;3.70;1.52;;;;;;;22.25;47.53;101905.63;1683029;83;21094;-92
2022/07/17 09:31:26;;;;;;;5.80;1.52;;;;;;;21.98;47.36;101907.55;1637105;84;21537;-91
2022/07/17 09:33:53;;;;;;;4.08;2.20;;;;;;;21.74;47.42;101913.88;1665615;84;22380;-90
2022/07/17 09:36:20;;;;;;;2.83;1.45;;;;;;;21.54;47.62;101912.57;1671204;84;21322;-91
2022/07/17 09:38:48;;;;;;;4.58;1.15;;;;;;;21.49;47.76;101912.59;1670811;84;21495;-90
2022/07/17 09:41:17;;;;;;;4.55;1.67;;;;;;;21.52;47.77;101911.69;1670258;84;21107;-90
2022/07/17 09:43:59;;;;;;;4.35;1.05;;;;;;;21.58;47.38;101902.75;1670456;84;21107;-90
2022/07/17 09:46:32;;;;;;;2.55;1.40;;;;;;;21.97;47.17;101896.36;1666568;84;21785;-92
2022/07/17 09:49:02;;;;;;;6.28;1.40;;;;;;;21.97;47.17;101896.36;1649461;85;21345;-91
2022/07/17 09:51:34;;;;;;;2.95;0.75;;;;;;;22.25;46.61;101898.92;1670456;84;21084;-91
2022/07/17 09:54:05;;;;;;;4.60;1.45;;;;;;;22.42;46.13;101902.89;1666611;84;21176;-91
2022/07/17 09:56:34;;;;;;;3.42;1.20;;;;;;;22.51;46.04;101910.43;1666408;84;21631;-91
2022/07/17 09:59:10;;;;;;;4.25;1.92;;;;;;;22.47;45.69;101913.16;1666493;84;21812;-90
2022/07/17 10:01:40;;;;;;;3.75;1.70;;;;;;;22.34;45.85;101911.45;1666850;84;21096;-90
2022/07/17 10:04:08;;;;;;;4.65;1.87;;;;;;;22.20;45.67;101906.98;1635857;85;21014;-90
2022/07/17 10:06:35;;;;;;;4.58;1.30;;;;;;;22.18;45.42;101905.22;1632756;85;22297;-90
2022/07/17 10:09:03;;;;;;;9.65;3.10;;;;;;;22.18;45.00;101906.09;1650071;85;21145;-90
2022/07/17 10:11:32;;;;;;;6.12;1.72;;;;;;;22.30;44.67;101911.45;1650974;84;21888;-90
2022/07/17 10:14:09;;;;;;;5.20;1.67;;;;;;;22.54;44.61;101906.83;1651608;85;21019;-91
2022/07/17 10:16:41;;;;;;;5.33;1.22;;;;;;;22.84;44.60;101908.44;1652877;85;21063;-91
2022/07/17 10:19:24;;;;;;;4.12;1.52;;;;;;;23.14;44.19;101901.03;1652953;84;21494;-91
2022/07/17 10:21:59;;;;;;;2.87;1.27;;;;;;;23.41;44.33;101900.36;1645513;85;22174;-90
2022/07/17 10:24:27;;;;;;;3.95;1.47;;;;;;;23.73;44.60;101905.39;1650361;85;21800;-90
2022/07/17 10:26:54;;;;;;;7.22;2.47;;;;;;;23.61;44.08;101905.08;1647629;85;21616;-90
2022/07/17 10:29:36;;;;;;;4.33;1.80;;;;;;;23.46;44.17;101917.30;1610198;85;21627;-90
2022/07/17 10:32:17;;;;;;;7.67;1.72;;;;;;;23.21;44.21;101918.88;1649265;85;21071;-90
2022/07/17 10:34:46;;;;;;;4.17;1.60;;;;;;;22.97;43.85;101919.06;1617829;85;21083;-90
2022/07/17 10:37:28;;;;;;;7.47;1.65;;;;;;;22.58;44.03;101921.12;1647094;85;21522;-90
2022/07/17 10:40:02;;;;;;;3.00;1.47;;;;;;;22.36;44.52;101916.34;1644357;85;21094;-90
2022/07/17 10:42:52;;;;;;;4.42;1.27;;;;;;;22.21;44.62;101926.20;1647613;84;21682;-90
2022/07/17 10:45:27;;;;;;;6.62;1.20;;;;;;;22.10;44.58;101920.00;1644988;85;21098;-91
2022/07/17 10:48:01;;;;;;;5.03;1.30;;;;;;;22.04;44.37;101916.89;1646163;85;21085;-90
2022/07/17 10:50:42;;;;;;;4.97;1.40;;;;;;;21.94;44.04;101916.47;1650029;85;21752;-91
2022/07/17 10:53:23;;;;;;;2.87;1.15;;;;;;;21.83;43.87;101923.23;1649800;85;21170;-91
2022/07/17 10:55:54;;;;;;;3.98;1.30;;;;;;;21.77;43.95;101917.87;1651092;85;21490;-91
2022/07/17 10:58:28;;;;;;;9.20;1.25;;;;;;;21.79;44.00;101913.42;1635319;86;21193;-91
2022/07/17 11:01:13;;;;;;;3.92;1.80;;;;;;;21.89;44.51;101916.96;1644579;84;21126;-90
2022/07/17 11:03:49;;;;;;;6.58;1.50;;;;;;;22.08;44.70;101921.80;1664948;84;22372;-90
2022/07/17 11:06:23;;;;;;;6.87;1.60;;;;;;;22.34;44.42;101916.35;1669887;83;21552;-90
2022/07/17 11:08:54;;;;;;;7.20;1.52;;;;;;;22.75;44.49;101920.58;1676477;83;21137;-92
2022/07/17 11:11:23;;;;;;;6.62;1.77;;;;;;;23.15;44.37;101924.78;1667704;85;21201;-89
2022/07/17 11:13:49;;;;;;;7.90;1.55;;;;;;;23.27;43.74;101928.25;1653842;85;21109;-90
2022/07/17 11:16:27;;;;;;;8.15;2.02;;;;;;;23.20;43.28;101929.64;1674942;83;21897;-91
2022/07/17 11:18:55;;;;;;;4.28;1.10;;;;;;;23.29;43.43;101930.90;1680955;83;21156;-90
2022/07/17 11:21:22;;;;;;;3.87;1.20;;;;;;;23.36;42.84;101925.91;1676403;84;21060;-90
2022/07/17 11:23:55;;;;;;;4.10;1.50;;;;;;;23.40;42.52;101934.84;1680566;84;21091;-90
2022/07/17 11:26:22;;;;;;;4.47;1.30;;;;;;;23.48;42.74;101928.50;1680315;83;21585;-89
2022/07/17 11:28:49;;;;;;;3.20;1.30;;;;;;;23.67;42.72;101928.31;1680136;84;21703;-90
2022/07/17 11:31:23;;;;;;;4.40;1.50;;;;;;;23.74;42.28;101921.94;1674630;85;21101;-90